VTBU/UTP METAR and TAF weather

Enter ICAO airport designator
Station Type Date Time Source
VTBU METAR 2021/01/22 06:00 UTC NOAA

VTBU 220600Z 17008KT 140V210 6000 FEW025 30/18 Q1011 NOSIG


Station Type Date Time Source
VTBU Decoded METAR 2021/01/22 06:00 UTC NOAA

Rayong, Thailand (VTBU) 12-38N 101-21E 5M
Jan 22, 2021 - 01:00 AM EST / 2021.01.22 0600 UTC
Wind: from the S (170 degrees) at 9 MPH (8 KT) (direction variable):0
Visibility: 3 mile(s):0
Sky conditions: mostly clear
Temperature: 86 F (30 C)
Dew Point: 64 F (18 C)
Relative Humidity: 48%
Pressure (altimeter): 29.85 in. Hg (1011 hPa)
ob: VTBU 220600Z 17008KT 140V210 6000 FEW025 30/18 Q1011 NOSIG
cycle: 6

Station Type Date Time Source
VTBU TAF 2021/01/22 06:36 UTC NOAA

TAF VTBU 220500Z 2206/2306 18010KT 7000 FEW025
BECMG 2210/2212 35004KT 4000 BR NSC
BECMG 2302/2304 17010KT 7000 NSW FEW025

Example: see airport list